sensor_id;sensor_type;location;lat;lon;timestamp;temperature;humidity
16273;DHT22;8244;50.044;9.006;2023-11-22T00:03:46;5.00;99.90
16273;DHT22;8244;50.044;9.006;2023-11-22T00:08:49;4.90;99.90
16273;DHT22;8244;50.044;9.006;2023-11-22T00:13:50;4.70;99.90
16273;DHT22;8244;50.044;9.006;2023-11-22T00:18:56;4.60;99.90
16273;DHT22;8244;50.044;9.006;2023-11-22T00:23:59;4.50;99.90
16273;DHT22;8244;50.044;9.006;2023-11-22T00:29:00;4.40;99.90
16273;DHT22;8244;50.044;9.006;2023-11-22T00:34:02;4.30;99.90
16273;DHT22;8244;50.044;9.006;2023-11-22T00:39:05;4.20;99.90
16273;DHT22;8244;50.044;9.006;2023-11-22T00:44:10;4.10;99.90
16273;DHT22;8244;50.044;9.006;2023-11-22T00:49:11;4.00;99.90
16273;DHT22;8244;50.044;9.006;2023-11-22T00:54:14;3.90;99.90
16273;DHT22;8244;50.044;9.006;2023-11-22T00:59:16;3.80;99.90
16273;DHT22;8244;50.044;9.006;2023-11-22T01:04:19;3.70;99.90
16273;DHT22;8244;50.044;9.006;2023-11-22T01:09:22;3.70;99.90
16273;DHT22;8244;50.044;9.006;2023-11-22T01:14:24;3.60;99.90
16273;DHT22;8244;50.044;9.006;2023-11-22T01:19:26;3.60;99.90
16273;DHT22;8244;50.044;9.006;2023-11-22T01:24:30;3.50;99.90
16273;DHT22;8244;50.044;9.006;2023-11-22T01:29:31;3.50;99.90
16273;DHT22;8244;50.044;9.006;2023-11-22T01:34:35;3.40;99.90
16273;DHT22;8244;50.044;9.006;2023-11-22T01:39:39;3.30;99.90
16273;DHT22;8244;50.044;9.006;2023-11-22T01:44:41;3.30;99.90
16273;DHT22;8244;50.044;9.006;2023-11-22T01:49:43;3.20;99.90
16273;DHT22;8244;50.044;9.006;2023-11-22T01:54:47;3.10;99.90
16273;DHT22;8244;50.044;9.006;2023-11-22T01:59:48;3.10;99.90
16273;DHT22;8244;50.044;9.006;2023-11-22T02:04:50;3.00;99.90
16273;DHT22;8244;50.044;9.006;2023-11-22T02:09:53;2.90;99.90
16273;DHT22;8244;50.044;9.006;2023-11-22T02:14:55;2.90;99.90
16273;DHT22;8244;50.044;9.006;2023-11-22T02:19:56;2.80;99.90
16273;DHT22;8244;50.044;9.006;2023-11-22T02:24:59;2.80;99.90
16273;DHT22;8244;50.044;9.006;2023-11-22T02:30:01;2.70;99.90
16273;DHT22;8244;50.044;9.006;2023-11-22T02:35:06;2.70;99.90
16273;DHT22;8244;50.044;9.006;2023-11-22T02:40:14;2.60;99.90
16273;DHT22;8244;50.044;9.006;2023-11-22T02:45:19;2.50;99.90
16273;DHT22;8244;50.044;9.006;2023-11-22T02:50:23;2.40;99.90
16273;DHT22;8244;50.044;9.006;2023-11-22T02:55:27;2.40;99.90
16273;DHT22;8244;50.044;9.006;2023-11-22T03:00:29;2.30;99.90
16273;DHT22;8244;50.044;9.006;2023-11-22T03:05:31;2.20;99.90
16273;DHT22;8244;50.044;9.006;2023-11-22T03:10:34;2.10;99.90
16273;DHT22;8244;50.044;9.006;2023-11-22T03:15:36;2.10;99.90
16273;DHT22;8244;50.044;9.006;2023-11-22T03:20:37;2.00;99.90
16273;DHT22;8244;50.044;9.006;2023-11-22T03:25:40;1.90;99.90
16273;DHT22;8244;50.044;9.006;2023-11-22T03:30:42;1.90;99.90
16273;DHT22;8244;50.044;9.006;2023-11-22T03:35:44;1.80;99.90
16273;DHT22;8244;50.044;9.006;2023-11-22T03:40:47;1.80;99.90
16273;DHT22;8244;50.044;9.006;2023-11-22T03:45:49;1.70;99.90
16273;DHT22;8244;50.044;9.006;2023-11-22T03:50:50;1.70;99.90
16273;DHT22;8244;50.044;9.006;2023-11-22T03:55:54;1.60;99.90
16273;DHT22;8244;50.044;9.006;2023-11-22T04:00:55;1.50;99.90
16273;DHT22;8244;50.044;9.006;2023-11-22T04:05:57;1.40;99.90
16273;DHT22;8244;50.044;9.006;2023-11-22T04:11:00;1.40;99.90
16273;DHT22;8244;50.044;9.006;2023-11-22T04:16:02;1.30;99.90
16273;DHT22;8244;50.044;9.006;2023-11-22T04:21:04;1.20;99.90
16273;DHT22;8244;50.044;9.006;2023-11-22T04:26:07;1.10;99.90
16273;DHT22;8244;50.044;9.006;2023-11-22T04:31:09;1.00;99.90
16273;DHT22;8244;50.044;9.006;2023-11-22T04:36:11;0.90;99.90
16273;DHT22;8244;50.044;9.006;2023-11-22T04:41:14;0.90;99.90
16273;DHT22;8244;50.044;9.006;2023-11-22T04:46:16;0.80;99.90
16273;DHT22;8244;50.044;9.006;2023-11-22T04:51:17;0.80;99.90
16273;DHT22;8244;50.044;9.006;2023-11-22T04:56:20;0.70;99.90
16273;DHT22;8244;50.044;9.006;2023-11-22T05:01:22;0.70;99.90
16273;DHT22;8244;50.044;9.006;2023-11-22T05:06:24;0.60;99.90
16273;DHT22;8244;50.044;9.006;2023-11-22T05:11:27;0.60;99.90
16273;DHT22;8244;50.044;9.006;2023-11-22T05:16:29;0.60;99.90
16273;DHT22;8244;50.044;9.006;2023-11-22T05:21:31;0.60;99.90
16273;DHT22;8244;50.044;9.006;2023-11-22T05:26:34;0.70;99.90
16273;DHT22;8244;50.044;9.006;2023-11-22T05:31:36;0.70;99.90
16273;DHT22;8244;50.044;9.006;2023-11-22T05:36:38;0.60;99.90
16273;DHT22;8244;50.044;9.006;2023-11-22T05:41:42;0.60;99.90
16273;DHT22;8244;50.044;9.006;2023-11-22T05:46:43;0.60;99.90
16273;DHT22;8244;50.044;9.006;2023-11-22T05:51:45;0.60;99.90
16273;DHT22;8244;50.044;9.006;2023-11-22T05:56:48;0.60;99.90
16273;DHT22;8244;50.044;9.006;2023-11-22T06:01:50;0.60;99.90
16273;DHT22;8244;50.044;9.006;2023-11-22T06:06:52;0.60;99.90
16273;DHT22;8244;50.044;9.006;2023-11-22T06:11:55;0.60;99.90
16273;DHT22;8244;50.044;9.006;2023-11-22T06:16:56;0.70;99.90
16273;DHT22;8244;50.044;9.006;2023-11-22T06:21:58;0.70;99.90
16273;DHT22;8244;50.044;9.006;2023-11-22T06:27:03;0.80;99.90
16273;DHT22;8244;50.044;9.006;2023-11-22T06:32:06;0.80;99.90
16273;DHT22;8244;50.044;9.006;2023-11-22T06:37:08;0.90;99.90
16273;DHT22;8244;50.044;9.006;2023-11-22T06:42:12;0.90;99.90
16273;DHT22;8244;50.044;9.006;2023-11-22T06:47:13;1.00;99.90
16273;DHT22;8244;50.044;9.006;2023-11-22T06:52:15;1.00;99.90
16273;DHT22;8244;50.044;9.006;2023-11-22T06:57:18;0.90;99.90
16273;DHT22;8244;50.044;9.006;2023-11-22T07:02:23;0.90;99.90
16273;DHT22;8244;50.044;9.006;2023-11-22T07:07:24;1.00;99.90
16273;DHT22;8244;50.044;9.006;2023-11-22T07:12:27;1.00;99.90
16273;DHT22;8244;50.044;9.006;2023-11-22T07:17:29;1.00;99.90
16273;DHT22;8244;50.044;9.006;2023-11-22T07:22:32;1.10;99.90
16273;DHT22;8244;50.044;9.006;2023-11-22T07:27:35;1.20;99.90
16273;DHT22;8244;50.044;9.006;2023-11-22T07:32:36;1.30;99.90
16273;DHT22;8244;50.044;9.006;2023-11-22T07:37:38;1.40;99.90
16273;DHT22;8244;50.044;9.006;2023-11-22T07:42:44;1.50;99.90
16273;DHT22;8244;50.044;9.006;2023-11-22T07:47:45;1.50;99.90
16273;DHT22;8244;50.044;9.006;2023-11-22T07:52:47;1.70;99.90
16273;DHT22;8244;50.044;9.006;2023-11-22T07:57:51;1.80;99.90
16273;DHT22;8244;50.044;9.006;2023-11-22T08:02:53;1.80;99.90
16273;DHT22;8244;50.044;9.006;2023-11-22T08:07:55;1.90;99.90
16273;DHT22;8244;50.044;9.006;2023-11-22T08:12:59;1.90;99.90
16273;DHT22;8244;50.044;9.006;2023-11-22T08:18:00;2.00;99.90
16273;DHT22;8244;50.044;9.006;2023-11-22T08:23:02;2.00;99.90
16273;DHT22;8244;50.044;9.006;2023-11-22T08:28:07;2.00;99.90
16273;DHT22;8244;50.044;9.006;2023-11-22T08:33:09;2.10;99.90
16273;DHT22;8244;50.044;9.006;2023-11-22T08:38:11;2.10;99.90
16273;DHT22;8244;50.044;9.006;2023-11-22T08:43:14;2.20;99.90
16273;DHT22;8244;50.044;9.006;2023-11-22T08:48:16;2.40;99.90
16273;DHT22;8244;50.044;9.006;2023-11-22T08:53:18;2.50;99.90
16273;DHT22;8244;50.044;9.006;2023-11-22T08:58:22;2.60;99.90
16273;DHT22;8244;50.044;9.006;2023-11-22T09:03:24;2.80;99.90
16273;DHT22;8244;50.044;9.006;2023-11-22T09:08:27;2.80;99.90
16273;DHT22;8244;50.044;9.006;2023-11-22T09:13:31;2.90;99.90
16273;DHT22;8244;50.044;9.006;2023-11-22T09:18:33;3.00;99.90
16273;DHT22;8244;50.044;9.006;2023-11-22T09:23:35;3.20;99.90
16273;DHT22;8244;50.044;9.006;2023-11-22T09:28:39;3.40;99.90
16273;DHT22;8244;50.044;9.006;2023-11-22T09:33:41;3.50;99.90
16273;DHT22;8244;50.044;9.006;2023-11-22T09:38:42;3.60;99.90
16273;DHT22;8244;50.044;9.006;2023-11-22T09:43:46;3.70;99.90
16273;DHT22;8244;50.044;9.006;2023-11-22T09:48:50;3.80;99.90
16273;DHT22;8244;50.044;9.006;2023-11-22T09:53:56;3.90;99.90
16273;DHT22;8244;50.044;9.006;2023-11-22T09:59:03;4.00;99.90
16273;DHT22;8244;50.044;9.006;2023-11-22T10:04:05;4.10;99.90
16273;DHT22;8244;50.044;9.006;2023-11-22T10:09:07;4.30;99.90
16273;DHT22;8244;50.044;9.006;2023-11-22T10:14:10;4.30;99.90
16273;DHT22;8244;50.044;9.006;2023-11-22T10:19:11;4.30;99.90
16273;DHT22;8244;50.044;9.006;2023-11-22T10:24:21;4.40;99.90
16273;DHT22;8244;50.044;9.006;2023-11-22T10:29:25;4.40;99.90
16273;DHT22;8244;50.044;9.006;2023-11-22T10:34:27;4.60;99.90
16273;DHT22;8244;50.044;9.006;2023-11-22T10:39:30;4.70;99.90
16273;DHT22;8244;50.044;9.006;2023-11-22T10:44:34;4.80;99.90
16273;DHT22;8244;50.044;9.006;2023-11-22T10:49:39;5.00;99.90
16273;DHT22;8244;50.044;9.006;2023-11-22T10:54:44;5.00;99.90
16273;DHT22;8244;50.044;9.006;2023-11-22T10:59:54;5.00;99.90
16273;DHT22;8244;50.044;9.006;2023-11-22T11:04:59;5.10;99.90
16273;DHT22;8244;50.044;9.006;2023-11-22T11:10:04;5.30;99.90
16273;DHT22;8244;50.044;9.006;2023-11-22T11:15:09;5.50;99.90
16273;DHT22;8244;50.044;9.006;2023-11-22T11:20:11;5.60;99.90
16273;DHT22;8244;50.044;9.006;2023-11-22T11:25:15;5.80;99.90
16273;DHT22;8244;50.044;9.006;2023-11-22T11:30:44;5.90;99.90
16273;DHT22;8244;50.044;9.006;2023-11-22T11:35:47;6.00;99.90
16273;DHT22;8244;50.044;9.006;2023-11-22T11:40:49;6.10;99.90
16273;DHT22;8244;50.044;9.006;2023-11-22T11:45:53;6.20;99.90
16273;DHT22;8244;50.044;9.006;2023-11-22T11:50:55;6.30;99.90
16273;DHT22;8244;50.044;9.006;2023-11-22T11:55:57;6.40;99.90
16273;DHT22;8244;50.044;9.006;2023-11-22T12:01:00;6.40;99.90
16273;DHT22;8244;50.044;9.006;2023-11-22T12:06:03;6.40;99.90
16273;DHT22;8244;50.044;9.006;2023-11-22T12:11:05;6.40;99.90
16273;DHT22;8244;50.044;9.006;2023-11-22T12:16:11;6.30;99.90
16273;DHT22;8244;50.044;9.006;2023-11-22T12:21:15;6.20;99.90
16273;DHT22;8244;50.044;9.006;2023-11-22T12:26:20;6.10;99.90
16273;DHT22;8244;50.044;9.006;2023-11-22T12:31:23;6.00;99.90
16273;DHT22;8244;50.044;9.006;2023-11-22T12:36:25;5.90;99.90
16273;DHT22;8244;50.044;9.006;2023-11-22T12:41:27;5.90;99.90
16273;DHT22;8244;50.044;9.006;2023-11-22T12:46:45;5.80;99.90
16273;DHT22;8244;50.044;9.006;2023-11-22T12:51:48;5.80;99.90
16273;DHT22;8244;50.044;9.006;2023-11-22T12:56:50;5.80;99.90
16273;DHT22;8244;50.044;9.006;2023-11-22T13:01:56;5.70;99.90
16273;DHT22;8244;50.044;9.006;2023-11-22T13:06:58;5.70;99.90
16273;DHT22;8244;50.044;9.006;2023-11-22T13:12:00;5.80;99.90
16273;DHT22;8244;50.044;9.006;2023-11-22T13:17:03;5.80;99.90
16273;DHT22;8244;50.044;9.006;2023-11-22T13:22:07;5.80;99.90
16273;DHT22;8244;50.044;9.006;2023-11-22T13:27:09;5.80;99.90
16273;DHT22;8244;50.044;9.006;2023-11-22T13:32:12;5.80;99.90
16273;DHT22;8244;50.044;9.006;2023-11-22T13:37:14;5.90;99.90
16273;DHT22;8244;50.044;9.006;2023-11-22T13:42:16;5.90;99.90
16273;DHT22;8244;50.044;9.006;2023-11-22T13:47:19;5.80;99.90
16273;DHT22;8244;50.044;9.006;2023-11-22T13:52:21;5.80;99.90
16273;DHT22;8244;50.044;9.006;2023-11-22T13:57:23;5.80;99.90
16273;DHT22;8244;50.044;9.006;2023-11-22T14:02:26;5.80;99.90
16273;DHT22;8244;50.044;9.006;2023-11-22T14:07:28;5.80;99.90
16273;DHT22;8244;50.044;9.006;2023-11-22T14:12:29;5.70;99.90
16273;DHT22;8244;50.044;9.006;2023-11-22T14:17:33;5.70;99.90
16273;DHT22;8244;50.044;9.006;2023-11-22T14:22:35;5.70;99.90
16273;DHT22;8244;50.044;9.006;2023-11-22T14:27:37;5.70;99.90
16273;DHT22;8244;50.044;9.006;2023-11-22T14:32:40;5.50;99.90
16273;DHT22;8244;50.044;9.006;2023-11-22T14:37:43;5.50;99.90
16273;DHT22;8244;50.044;9.006;2023-11-22T14:42:45;5.50;99.90
16273;DHT22;8244;50.044;9.006;2023-11-22T14:47:51;5.40;99.90
16273;DHT22;8244;50.044;9.006;2023-11-22T14:52:52;5.30;99.90
16273;DHT22;8244;50.044;9.006;2023-11-22T14:57:54;5.20;99.90
16273;DHT22;8244;50.044;9.006;2023-11-22T15:02:59;5.10;99.90
16273;DHT22;8244;50.044;9.006;2023-11-22T15:08:01;5.00;99.90
16273;DHT22;8244;50.044;9.006;2023-11-22T15:13:02;4.90;99.90
16273;DHT22;8244;50.044;9.006;2023-11-22T15:18:05;4.80;99.90
16273;DHT22;8244;50.044;9.006;2023-11-22T15:23:07;4.60;99.90
16273;DHT22;8244;50.044;9.006;2023-11-22T15:28:09;4.50;99.90
16273;DHT22;8244;50.044;9.006;2023-11-22T15:33:12;4.20;99.90
16273;DHT22;8244;50.044;9.006;2023-11-22T15:38:14;4.10;99.90
16273;DHT22;8244;50.044;9.006;2023-11-22T15:43:16;4.00;99.90
16273;DHT22;8244;50.044;9.006;2023-11-22T15:48:19;3.90;99.90
16273;DHT22;8244;50.044;9.006;2023-11-22T15:53:21;3.80;99.90
16273;DHT22;8244;50.044;9.006;2023-11-22T15:58:22;3.70;99.90
16273;DHT22;8244;50.044;9.006;2023-11-22T16:03:25;3.60;99.90
16273;DHT22;8244;50.044;9.006;2023-11-22T16:08:27;3.50;99.90
16273;DHT22;8244;50.044;9.006;2023-11-22T16:13:29;3.40;99.90
16273;DHT22;8244;50.044;9.006;2023-11-22T16:18:32;3.40;99.90
16273;DHT22;8244;50.044;9.006;2023-11-22T16:23:35;3.30;99.90
16273;DHT22;8244;50.044;9.006;2023-11-22T16:28:36;3.30;99.90
16273;DHT22;8244;50.044;9.006;2023-11-22T16:33:39;3.20;99.90
16273;DHT22;8244;50.044;9.006;2023-11-22T16:38:41;3.20;99.90
16273;DHT22;8244;50.044;9.006;2023-11-22T16:43:45;3.20;99.90
16273;DHT22;8244;50.044;9.006;2023-11-22T16:48:49;3.10;99.90
16273;DHT22;8244;50.044;9.006;2023-11-22T16:53:54;3.00;99.90
16273;DHT22;8244;50.044;9.006;2023-11-22T16:58:57;2.90;99.90
16273;DHT22;8244;50.044;9.006;2023-11-22T17:04:00;2.80;99.90
16273;DHT22;8244;50.044;9.006;2023-11-22T17:09:03;2.80;99.90
16273;DHT22;8244;50.044;9.006;2023-11-22T17:14:05;2.70;99.90
16273;DHT22;8244;50.044;9.006;2023-11-22T17:19:08;2.60;99.90
16273;DHT22;8244;50.044;9.006;2023-11-22T17:24:10;2.40;99.90
16273;DHT22;8244;50.044;9.006;2023-11-22T17:29:11;2.30;99.90
16273;DHT22;8244;50.044;9.006;2023-11-22T17:34:14;2.30;99.90
16273;DHT22;8244;50.044;9.006;2023-11-22T17:39:16;2.20;99.90
16273;DHT22;8244;50.044;9.006;2023-11-22T17:44:19;2.10;99.90
16273;DHT22;8244;50.044;9.006;2023-11-22T17:49:23;2.10;99.90
16273;DHT22;8244;50.044;9.006;2023-11-22T17:54:25;2.10;99.90
16273;DHT22;8244;50.044;9.006;2023-11-22T17:59:27;2.00;99.90
16273;DHT22;8244;50.044;9.006;2023-11-22T18:04:30;1.90;99.90
16273;DHT22;8244;50.044;9.006;2023-11-22T18:09:31;1.90;99.90
16273;DHT22;8244;50.044;9.006;2023-11-22T18:14:35;1.90;99.90
16273;DHT22;8244;50.044;9.006;2023-11-22T18:19:38;1.80;99.90
16273;DHT22;8244;50.044;9.006;2023-11-22T18:24:39;1.70;99.90
16273;DHT22;8244;50.044;9.006;2023-11-22T18:29:41;1.70;99.90
16273;DHT22;8244;50.044;9.006;2023-11-22T18:34:44;1.60;99.90
16273;DHT22;8244;50.044;9.006;2023-11-22T18:39:46;1.50;99.90
16273;DHT22;8244;50.044;9.006;2023-11-22T18:44:47;1.50;99.90
16273;DHT22;8244;50.044;9.006;2023-11-22T18:49:50;1.40;99.90
16273;DHT22;8244;50.044;9.006;2023-11-22T18:54:52;1.40;99.90
16273;DHT22;8244;50.044;9.006;2023-11-22T18:59:53;1.40;99.90
16273;DHT22;8244;50.044;9.006;2023-11-22T19:04:57;1.30;99.90
16273;DHT22;8244;50.044;9.006;2023-11-22T19:09:59;1.30;99.90
16273;DHT22;8244;50.044;9.006;2023-11-22T19:15:01;1.30;99.90
16273;DHT22;8244;50.044;9.006;2023-11-22T19:20:05;1.30;99.90
16273;DHT22;8244;50.044;9.006;2023-11-22T19:25:07;1.20;99.90
16273;DHT22;8244;50.044;9.006;2023-11-22T19:30:11;1.20;99.90
16273;DHT22;8244;50.044;9.006;2023-11-22T19:35:15;1.20;99.90
16273;DHT22;8244;50.044;9.006;2023-11-22T19:40:16;1.20;99.90
16273;DHT22;8244;50.044;9.006;2023-11-22T19:45:18;1.20;99.90
16273;DHT22;8244;50.044;9.006;2023-11-22T19:50:21;1.20;99.90
16273;DHT22;8244;50.044;9.006;2023-11-22T19:55:23;1.20;99.90
16273;DHT22;8244;50.044;9.006;2023-11-22T20:00:25;1.20;99.90
16273;DHT22;8244;50.044;9.006;2023-11-22T20:05:28;1.20;99.90
16273;DHT22;8244;50.044;9.006;2023-11-22T20:10:30;1.20;99.90
16273;DHT22;8244;50.044;9.006;2023-11-22T20:15:31;1.20;99.90
16273;DHT22;8244;50.044;9.006;2023-11-22T20:20:34;1.20;99.90
16273;DHT22;8244;50.044;9.006;2023-11-22T20:25:36;1.10;99.90
16273;DHT22;8244;50.044;9.006;2023-11-22T20:30:38;1.10;99.90
16273;DHT22;8244;50.044;9.006;2023-11-22T20:35:41;1.10;99.90
16273;DHT22;8244;50.044;9.006;2023-11-22T20:40:43;1.10;99.90
16273;DHT22;8244;50.044;9.006;2023-11-22T20:45:45;1.00;99.90
16273;DHT22;8244;50.044;9.006;2023-11-22T20:50:49;1.00;99.90
16273;DHT22;8244;50.044;9.006;2023-11-22T20:55:50;0.90;99.90
16273;DHT22;8244;50.044;9.006;2023-11-22T21:00:52;0.90;99.90
16273;DHT22;8244;50.044;9.006;2023-11-22T21:05:55;0.80;99.90
16273;DHT22;8244;50.044;9.006;2023-11-22T21:10:57;0.80;99.90
16273;DHT22;8244;50.044;9.006;2023-11-22T21:16:00;0.80;99.90
16273;DHT22;8244;50.044;9.006;2023-11-22T21:21:03;0.70;99.90
16273;DHT22;8244;50.044;9.006;2023-11-22T21:26:06;0.80;99.90
16273;DHT22;8244;50.044;9.006;2023-11-22T21:31:13;0.70;99.90
16273;DHT22;8244;50.044;9.006;2023-11-22T21:36:19;0.70;99.90
16273;DHT22;8244;50.044;9.006;2023-11-22T21:41:22;0.70;99.90
16273;DHT22;8244;50.044;9.006;2023-11-22T21:46:24;0.70;99.90
16273;DHT22;8244;50.044;9.006;2023-11-22T21:51:30;0.70;99.90
16273;DHT22;8244;50.044;9.006;2023-11-22T21:56:32;0.70;99.90
16273;DHT22;8244;50.044;9.006;2023-11-22T22:01:34;0.70;99.90
16273;DHT22;8244;50.044;9.006;2023-11-22T22:06:37;0.70;99.90
16273;DHT22;8244;50.044;9.006;2023-11-22T22:11:38;0.70;99.90
16273;DHT22;8244;50.044;9.006;2023-11-22T22:16:40;0.70;99.90
16273;DHT22;8244;50.044;9.006;2023-11-22T22:21:43;0.80;99.90
16273;DHT22;8244;50.044;9.006;2023-11-22T22:26:45;0.90;99.90
16273;DHT22;8244;50.044;9.006;2023-11-22T22:31:47;0.90;99.90
16273;DHT22;8244;50.044;9.006;2023-11-22T22:36:51;1.00;99.90
16273;DHT22;8244;50.044;9.006;2023-11-22T22:41:52;1.00;99.90
16273;DHT22;8244;50.044;9.006;2023-11-22T22:46:54;1.10;99.90
16273;DHT22;8244;50.044;9.006;2023-11-22T22:51:57;1.20;99.90
16273;DHT22;8244;50.044;9.006;2023-11-22T22:56:58;1.20;99.90
16273;DHT22;8244;50.044;9.006;2023-11-22T23:02:00;1.20;99.90
16273;DHT22;8244;50.044;9.006;2023-11-22T23:07:04;1.20;99.90
16273;DHT22;8244;50.044;9.006;2023-11-22T23:12:07;1.30;99.90
16273;DHT22;8244;50.044;9.006;2023-11-22T23:17:09;1.30;99.90
16273;DHT22;8244;50.044;9.006;2023-11-22T23:22:13;1.30;99.90
16273;DHT22;8244;50.044;9.006;2023-11-22T23:27:14;1.40;99.90
16273;DHT22;8244;50.044;9.006;2023-11-22T23:32:16;1.40;99.90
16273;DHT22;8244;50.044;9.006;2023-11-22T23:37:19;1.40;99.90
16273;DHT22;8244;50.044;9.006;2023-11-22T23:42:21;1.40;99.90
16273;DHT22;8244;50.044;9.006;2023-11-22T23:47:23;1.40;99.90
16273;DHT22;8244;50.044;9.006;2023-11-22T23:52:26;1.40;99.90
16273;DHT22;8244;50.044;9.006;2023-11-22T23:57:28;1.40;99.90
